Pagrindinis puslapis
METAR-TAF:

METAR-TAF

Oro uostai :

Longjyrbienas, Norvegija

platuma: 78-15N, ilguma: 015-28E, Aukštis: 2 m

Dabartinis oras

Ataskaita buvo paskelbta 23 minutes, ne 15:50 UTC
Vėjas 5 kt iš Pietų/Pietvakarių, svyruoja nuo Pietų ir Pietvakarių
Temperatūra 0°C
Drėgmė 74%
Slėgis 1022 hPa
Matomumas 10 km arba daugiau
Išsisklaidę debesys ne aukštis 2000 ft

METAR: ENSB 221550Z 20005KT 180V230 9999 SCT020 M00/M04 Q1022 RMK WIND 1400FT 22009KT

Laikas: 18:13 (16:13 UTC)

Prognozė

Prognozė galioja nuo 22 metu 12 UTC su 23 metu 12 UTC
Vėjas 8 kt iš Pietvakarių
Matomumas 10 km arba daugiau
Mažai debesys ne aukštis 1500 ft
Išsisklaidę debesys ne aukštis 3000 ft
Tikimybė 40% :
Laikinai
nuo 22 metu 21 UTC su 23 metu 04 UTC
Su prošvaistėmis ne aukštis 1200 ft

TAF: ENSB 2212/2312 23008KT 9999 FEW015 SCT030 PROB40 TEMPO 2221/2304 BKN012

Orai ataskaitas ir orų prognozės (METAR, TAF).

turimą stotys yra geltonos ir raudonos taškus žemėlapyje.

Perkelti pele per norėdami pamatyti stoties vardą.

Tada spustelėkite, norėdami matyti oro stebėjimo ir prognozės.

Norėdami pakeisti žemėlapį: spustelėkite ant žalios mygtukų su juodo kryžiaus žemyn,; žalią mygtuką su brūkšneliu, jei norite nutolinti; arba žalių rodyklių gretimoms žemėlapius.


METAR-TAF: